Time;durP1;ratioP1;P1;durP2;ratioP2;P2;SDS_P1;SDS_P2;PMS_P1;PMS_P2;Temp;Humidity;BMP_temperature;BMP_pressure;BME280_temperature;BME280_humidity;BME280_pressure;Samples;Min_cycle;Max_cycle;Signal;HPM_P1;HPM_P2
2022/01/11 00:00:53;;;;;;;125.50;34.88;;;2.70;99.90;;;;;;5054173;28;20035;-78
2022/01/11 00:03:19;;;;;;;93.65;32.67;;;2.70;99.90;;;;;;5053900;28;20106;-78
2022/01/11 00:06:16;;;;;;;94.97;31.98;;;2.80;99.90;;;;;;5053965;28;20489;-78
2022/01/11 00:08:44;;;;;;;92.90;31.70;;;2.90;99.90;;;;;;5052384;28;20017;-78
2022/01/11 00:11:17;;;;;;;107.25;30.65;;;3.00;99.90;;;;;;5053765;28;20025;-78
2022/01/11 00:13:43;;;;;;;83.40;30.92;;;3.00;99.90;;;;;;5055476;28;20494;-78
2022/01/11 00:16:13;;;;;;;75.88;29.33;;;3.10;99.90;;;;;;5073069;28;20079;-78
2022/01/11 00:18:39;;;;;;;79.95;30.33;;;3.10;99.90;;;;;;5067167;28;20108;-78
2022/01/11 00:21:05;;;;;;;93.03;31.17;;;3.20;99.90;;;;;;5073436;28;20028;-78
2022/01/11 00:25:58;;;;;;;74.82;28.70;;;3.20;99.90;;;;;;5053424;28;20068;-78
2022/01/11 00:28:25;;;;;;;77.82;29.80;;;3.30;99.90;;;;;;5053102;28;20021;-78
2022/01/11 00:30:53;;;;;;;76.75;28.60;;;3.30;99.90;;;;;;5053482;28;20060;-78
2022/01/11 00:33:29;;;;;;;80.60;29.67;;;3.20;99.90;;;;;;5052135;28;20029;-78
2022/01/11 00:35:59;;;;;;;98.75;30.35;;;3.20;99.90;;;;;;5068558;28;20516;-78
2022/01/11 00:38:31;;;;;;;107.85;33.05;;;3.30;99.90;;;;;;5060029;28;20473;-78
2022/01/11 00:41:02;;;;;;;89.88;30.00;;;3.30;99.90;;;;;;5073240;28;20100;-78
2022/01/11 00:43:35;;;;;;;82.35;28.73;;;3.30;99.90;;;;;;5073115;28;20412;-78
2022/01/11 00:46:06;;;;;;;83.47;28.33;;;3.30;99.90;;;;;;5072007;28;20021;-78
2022/01/11 00:48:39;;;;;;;94.40;29.13;;;3.20;99.90;;;;;;5073211;28;20535;-78
2022/01/11 00:51:09;;;;;;;114.30;33.53;;;3.10;99.90;;;;;;5071733;28;20400;-78
2022/01/11 00:53:35;;;;;;;92.43;30.20;;;3.10;99.90;;;;;;5060182;28;20489;-78
2022/01/11 00:56:03;;;;;;;99.72;31.33;;;3.10;99.90;;;;;;5052981;28;20025;-78
2022/01/11 00:58:29;;;;;;;120.18;34.22;;;3.20;99.90;;;;;;5053450;28;20086;-76
2022/01/11 01:00:56;;;;;;;100.57;32.08;;;3.20;99.90;;;;;;5062530;28;20133;-77
2022/01/11 01:03:28;;;;;;;91.47;29.08;;;3.20;99.90;;;;;;5054532;28;20040;-77
2022/01/11 01:05:57;;;;;;;88.10;29.67;;;3.10;99.90;;;;;;5051697;28;20064;-78
2022/01/11 01:08:23;;;;;;;79.22;27.15;;;3.10;99.90;;;;;;5053150;28;20462;-78
2022/01/11 01:10:50;;;;;;;89.65;28.50;;;3.10;99.90;;;;;;5051781;28;20021;-78
2022/01/11 01:13:27;;;;;;;78.28;28.13;;;3.20;99.90;;;;;;5051521;28;20032;-78
2022/01/11 01:15:55;;;;;;;101.35;29.45;;;3.30;99.90;;;;;;5051399;28;20025;-78
2022/01/11 01:18:26;;;;;;;91.63;30.02;;;3.30;99.90;;;;;;5052645;28;20033;-78
2022/01/11 01:20:54;;;;;;;86.53;28.35;;;3.20;99.90;;;;;;5052426;28;20100;-78
2022/01/11 01:23:24;;;;;;;87.70;30.20;;;3.20;99.90;;;;;;5042501;28;20092;-78
2022/01/11 01:25:50;;;;;;;86.57;29.67;;;3.10;99.90;;;;;;5051738;28;20049;-78
2022/01/11 01:28:22;;;;;;;83.63;29.73;;;3.00;99.90;;;;;;5052846;28;20075;-78
2022/01/11 01:30:49;;;;;;;97.10;30.63;;;3.00;99.90;;;;;;5053919;28;20025;-78
2022/01/11 01:33:16;;;;;;;88.00;29.10;;;2.80;99.90;;;;;;5063347;28;20100;-78
2022/01/11 01:35:49;;;;;;;118.40;33.33;;;2.80;99.90;;;;;;5052712;28;20481;-78
2022/01/11 01:38:21;;;;;;;98.65;32.30;;;2.90;99.90;;;;;;5051403;28;20051;-78
2022/01/11 01:40:52;;;;;;;90.72;29.67;;;2.90;99.90;;;;;;5053687;28;20033;-78
2022/01/11 01:43:20;;;;;;;91.45;31.33;;;2.80;99.90;;;;;;5055337;28;20037;-78
2022/01/11 01:45:49;;;;;;;95.60;32.05;;;2.90;99.90;;;;;;5056857;28;20029;-77
2022/01/11 01:48:16;;;;;;;93.70;31.20;;;3.00;99.90;;;;;;5056412;28;20017;-78
2022/01/11 01:50:43;;;;;;;92.05;29.92;;;2.90;99.90;;;;;;5056688;28;20021;-77
2022/01/11 01:53:14;;;;;;;90.25;31.95;;;2.80;99.90;;;;;;5056433;28;20029;-78
2022/01/11 01:55:41;;;;;;;84.80;29.98;;;2.80;99.90;;;;;;5052301;28;20028;-78
2022/01/11 01:58:07;;;;;;;86.43;30.63;;;2.70;99.90;;;;;;5036542;28;20516;-78
2022/01/11 02:00:41;;;;;;;88.38;30.42;;;2.80;99.90;;;;;;5041039;28;20473;-78
2022/01/11 02:03:12;;;;;;;82.53;29.35;;;2.70;99.90;;;;;;5055819;28;20074;-78
2022/01/11 02:05:41;;;;;;;90.88;32.17;;;2.90;99.90;;;;;;5056193;28;20040;-78
2022/01/11 02:08:08;;;;;;;83.35;29.77;;;2.80;99.90;;;;;;5055119;28;20036;-78
2022/01/11 02:10:37;;;;;;;75.95;28.48;;;2.70;99.90;;;;;;5056184;28;20021;-78
2022/01/11 02:13:04;;;;;;;83.13;29.50;;;2.60;99.90;;;;;;5054788;28;20025;-78
2022/01/11 02:15:31;;;;;;;84.72;30.55;;;2.70;99.90;;;;;;5056189;28;20104;-78
2022/01/11 02:18:13;;;;;;;82.40;29.88;;;2.70;99.90;;;;;;5054510;28;20112;-78
2022/01/11 02:20:46;;;;;;;90.70;31.85;;;2.60;99.90;;;;;;5054696;28;20386;-78
2022/01/11 02:23:14;;;;;;;68.57;25.75;;;2.70;99.90;;;;;;5054585;28;20397;-78
2022/01/11 02:25:40;;;;;;;77.57;30.48;;;2.60;99.90;;;;;;5053311;28;20021;-78
2022/01/11 02:28:09;;;;;;;80.30;30.42;;;2.60;99.90;;;;;;5075326;28;20043;-78
2022/01/11 02:30:35;;;;;;;77.90;29.10;;;2.60;99.90;;;;;;5077763;28;20016;-78
2022/01/11 02:33:10;;;;;;;78.70;29.23;;;2.60;99.90;;;;;;5056773;28;20028;-78
2022/01/11 02:35:37;;;;;;;86.78;32.03;;;2.50;99.90;;;;;;5055566;28;20075;-78
2022/01/11 02:38:03;;;;;;;103.85;34.17;;;2.60;99.90;;;;;;5057653;28;20767;-78
2022/01/11 02:40:29;;;;;;;89.05;33.55;;;2.70;99.90;;;;;;5055516;28;20029;-76
2022/01/11 02:42:55;;;;;;;92.47;33.55;;;2.80;99.90;;;;;;5056017;28;20075;-77
2022/01/11 02:45:23;;;;;;;97.68;34.03;;;2.80;99.90;;;;;;5055645;28;20112;-76
2022/01/11 02:47:50;;;;;;;82.95;31.80;;;2.90;99.90;;;;;;5054281;28;20448;-76
2022/01/11 02:50:19;;;;;;;81.40;31.05;;;2.80;99.90;;;;;;5055736;28;20035;-77
2022/01/11 02:52:44;;;;;;;87.07;32.50;;;2.60;99.90;;;;;;5054916;28;20031;-77
2022/01/11 02:55:13;;;;;;;95.18;32.13;;;2.60;99.90;;;;;;5055687;28;20025;-76
2022/01/11 02:57:39;;;;;;;79.82;31.45;;;2.60;99.90;;;;;;5047057;28;20017;-76
2022/01/11 03:00:11;;;;;;;93.03;34.53;;;2.60;99.90;;;;;;5060666;28;20516;-77
2022/01/11 03:02:37;;;;;;;87.20;32.33;;;2.70;99.90;;;;;;5052985;28;20013;-77
2022/01/11 03:05:08;;;;;;;83.53;33.58;;;2.70;99.90;;;;;;5055201;28;20029;-76
2022/01/11 03:07:34;;;;;;;94.33;34.03;;;2.70;99.90;;;;;;5053777;28;20028;-77
2022/01/11 03:10:11;;;;;;;90.03;34.35;;;2.70;99.90;;;;;;5055128;28;20556;-77
2022/01/11 03:12:37;;;;;;;79.55;31.20;;;2.80;99.90;;;;;;5055675;28;20021;-76
2022/01/11 03:15:04;;;;;;;76.82;30.23;;;2.80;99.90;;;;;;5055131;28;20021;-77
2022/01/11 03:17:30;;;;;;;87.00;32.22;;;2.70;99.90;;;;;;5055133;28;20021;-77
2022/01/11 03:19:55;;;;;;;95.65;33.03;;;2.70;99.90;;;;;;5043731;28;20512;-77
2022/01/11 03:22:21;;;;;;;82.70;32.90;;;2.80;99.90;;;;;;5046634;28;20025;-76
2022/01/11 03:24:53;;;;;;;87.18;33.55;;;2.70;99.90;;;;;;5053776;28;20040;-77
2022/01/11 03:27:18;;;;;;;90.60;31.93;;;2.50;99.90;;;;;;5054978;28;20029;-77
2022/01/11 03:29:44;;;;;;;89.32;34.17;;;2.60;99.90;;;;;;5057471;28;20354;-76
2022/01/11 03:32:12;;;;;;;91.47;32.95;;;2.70;99.90;;;;;;5051941;28;20358;-76
2022/01/11 03:34:41;;;;;;;89.15;33.83;;;2.70;99.90;;;;;;5052138;28;20489;-77
2022/01/11 03:37:07;;;;;;;93.82;36.25;;;2.60;99.90;;;;;;5052020;28;20043;-76
2022/01/11 03:39:33;;;;;;;96.57;35.10;;;2.60;99.90;;;;;;5052975;28;20502;-77
2022/01/11 03:41:58;;;;;;;98.25;35.22;;;2.50;99.90;;;;;;5052818;28;20018;-76
2022/01/11 03:44:24;;;;;;;107.18;35.80;;;2.50;99.90;;;;;;5052432;28;20024;-76
2022/01/11 03:46:50;;;;;;;114.18;38.92;;;2.40;99.90;;;;;;5053442;28;20025;-77
2022/01/11 03:49:15;;;;;;;107.15;37.25;;;2.50;99.90;;;;;;5054358;28;20600;-76
2022/01/11 03:51:41;;;;;;;109.57;37.38;;;2.50;99.90;;;;;;5052744;28;20059;-77
2022/01/11 03:54:16;;;;;;;106.60;37.67;;;2.50;99.90;;;;;;5053116;28;20040;-78
2022/01/11 03:56:42;;;;;;;113.93;39.22;;;2.50;99.90;;;;;;5046980;28;20031;-77
2022/01/11 03:59:08;;;;;;;108.13;39.03;;;2.40;99.90;;;;;;5054102;28;20104;-76
2022/01/11 04:01:38;;;;;;;110.30;36.63;;;2.50;99.90;;;;;;5053314;28;20025;-76
2022/01/11 04:04:07;;;;;;;108.45;37.85;;;2.60;99.90;;;;;;5053198;28;20025;-77
2022/01/11 04:06:32;;;;;;;108.80;38.17;;;2.50;99.90;;;;;;5052841;28;20021;-77
2022/01/11 04:08:59;;;;;;;128.02;40.15;;;2.40;99.90;;;;;;5054106;28;20033;-76
2022/01/11 04:11:25;;;;;;;116.57;39.72;;;2.40;99.90;;;;;;5053985;28;20373;-77
2022/01/11 04:13:51;;;;;;;136.98;42.08;;;2.40;99.90;;;;;;5052461;28;20032;-76
2022/01/11 04:16:16;;;;;;;114.22;37.78;;;2.50;99.90;;;;;;5052734;28;20522;-76
2022/01/11 04:18:42;;;;;;;116.45;40.38;;;2.30;99.90;;;;;;5054095;28;20028;-77
2022/01/11 04:21:08;;;;;;;127.20;39.90;;;2.30;99.90;;;;;;5053946;28;20021;-76
2022/01/11 04:23:35;;;;;;;114.30;40.53;;;2.40;99.90;;;;;;5048558;28;20064;-76
2022/01/11 04:26:01;;;;;;;114.07;39.00;;;2.50;99.90;;;;;;5050256;28;20025;-76
2022/01/11 04:28:27;;;;;;;112.15;39.20;;;2.50;99.90;;;;;;5072397;28;20028;-76
2022/01/11 04:30:58;;;;;;;102.63;36.17;;;2.50;99.90;;;;;;5073740;28;20499;-76
2022/01/11 04:33:26;;;;;;;98.88;36.75;;;2.60;99.90;;;;;;5060997;28;20036;-78
2022/01/11 04:35:52;;;;;;;100.75;34.25;;;2.50;99.90;;;;;;5054004;28;20036;-78
2022/01/11 04:38:19;;;;;;;111.35;36.30;;;2.40;99.90;;;;;;5053779;28;20031;-76
2022/01/11 04:40:48;;;;;;;95.57;33.38;;;2.30;99.90;;;;;;5052698;28;20078;-78
2022/01/11 04:43:15;;;;;;;101.30;33.92;;;2.30;99.90;;;;;;5053520;28;20025;-78
2022/01/11 04:45:42;;;;;;;98.03;34.85;;;2.20;99.90;;;;;;5053512;28;20025;-77
2022/01/11 04:48:09;;;;;;;99.65;34.53;;;2.20;99.90;;;;;;5053726;28;20100;-77
2022/01/11 04:50:36;;;;;;;89.03;34.40;;;2.10;99.90;;;;;;5053403;28;20083;-77
2022/01/11 04:53:02;;;;;;;95.05;35.00;;;2.20;99.90;;;;;;5053411;28;20029;-77
2022/01/11 04:55:28;;;;;;;95.63;36.47;;;2.20;99.90;;;;;;5050549;28;20485;-76
2022/01/11 04:57:54;;;;;;;89.85;33.70;;;2.10;99.90;;;;;;5052769;28;20099;-76
2022/01/11 05:00:22;;;;;;;99.50;39.10;;;2.20;99.90;;;;;;5053337;28;20044;-76
2022/01/11 05:02:48;;;;;;;97.93;35.22;;;2.20;99.90;;;;;;5053072;28;20070;-76
2022/01/11 05:05:15;;;;;;;94.43;33.83;;;2.30;99.90;;;;;;5053400;28;20104;-77
2022/01/11 05:07:46;;;;;;;97.85;35.00;;;2.30;99.90;;;;;;5053169;28;20033;-76
2022/01/11 05:10:14;;;;;;;93.78;35.38;;;2.30;99.90;;;;;;5053452;28;20025;-76
2022/01/11 05:12:40;;;;;;;99.07;35.55;;;2.20;99.90;;;;;;5051784;28;20111;-76
2022/01/11 05:15:09;;;;;;;94.65;35.42;;;2.30;99.90;;;;;;5053340;28;20029;-76
2022/01/11 05:17:35;;;;;;;92.43;36.08;;;2.20;99.90;;;;;;5051869;28;20021;-76
2022/01/11 05:20:01;;;;;;;90.68;32.67;;;2.20;99.90;;;;;;5053545;28;20029;-76
2022/01/11 05:22:27;;;;;;;90.25;33.75;;;2.20;99.90;;;;;;5052684;28;20375;-76
2022/01/11 05:24:53;;;;;;;92.68;35.55;;;2.40;99.90;;;;;;5054097;28;20035;-76
2022/01/11 05:27:24;;;;;;;93.18;34.50;;;2.40;99.90;;;;;;5072978;28;20496;-76
2022/01/11 05:29:51;;;;;;;86.00;33.73;;;2.30;99.90;;;;;;5073342;28;20024;-76
2022/01/11 05:32:17;;;;;;;80.47;33.53;;;2.20;99.90;;;;;;5073521;28;20251;-76
2022/01/11 05:34:48;;;;;;;86.28;32.42;;;2.20;99.90;;;;;;5073378;28;20112;-76
2022/01/11 05:37:14;;;;;;;78.67;31.40;;;2.20;99.90;;;;;;5073353;28;20094;-76
2022/01/11 05:39:40;;;;;;;83.07;33.03;;;2.20;99.90;;;;;;5072290;28;20271;-75
2022/01/11 05:42:06;;;;;;;80.97;30.77;;;2.20;99.90;;;;;;5071698;28;20047;-76
2022/01/11 05:44:35;;;;;;;79.82;31.67;;;2.20;99.90;;;;;;5072781;28;20023;-76
2022/01/11 05:47:03;;;;;;;85.32;33.22;;;2.30;99.90;;;;;;5073102;28;20049;-76
2022/01/11 05:49:30;;;;;;;85.40;32.65;;;2.30;99.90;;;;;;5073222;28;20055;-76
2022/01/11 05:51:56;;;;;;;87.45;32.72;;;2.20;99.90;;;;;;5072869;28;20023;-76
2022/01/11 05:54:23;;;;;;;87.78;31.88;;;2.20;99.90;;;;;;5038613;28;20037;-75
2022/01/11 05:56:50;;;;;;;97.10;33.53;;;2.10;99.90;;;;;;5052558;28;20037;-75
2022/01/11 05:59:17;;;;;;;94.10;35.15;;;2.10;99.90;;;;;;5052838;28;20040;-75
2022/01/11 06:01:44;;;;;;;89.72;32.90;;;2.00;99.90;;;;;;5052769;28;20029;-75
2022/01/11 06:04:11;;;;;;;88.18;33.75;;;1.90;99.90;;;;;;5071175;28;20029;-75
2022/01/11 06:06:36;;;;;;;83.93;31.17;;;1.90;99.90;;;;;;5072834;28;20028;-76
2022/01/11 06:09:03;;;;;;;94.97;34.45;;;1.90;99.90;;;;;;5071403;28;20574;-75
2022/01/11 06:11:29;;;;;;;92.78;33.78;;;1.90;99.90;;;;;;5072811;28;20449;-75
2022/01/11 06:13:55;;;;;;;88.68;32.80;;;1.90;99.90;;;;;;5072642;28;20081;-76
2022/01/11 06:16:21;;;;;;;86.55;32.58;;;1.80;99.90;;;;;;5065916;28;20025;-75
2022/01/11 06:18:48;;;;;;;86.68;34.05;;;1.80;99.90;;;;;;5050939;28;20024;-75
2022/01/11 06:21:14;;;;;;;88.07;31.92;;;1.80;99.90;;;;;;5052680;28;20017;-75
2022/01/11 06:23:40;;;;;;;82.55;30.92;;;1.90;99.90;;;;;;5051984;28;20032;-75
2022/01/11 06:26:05;;;;;;;72.95;30.00;;;1.80;99.90;;;;;;5052786;28;20044;-75
2022/01/11 06:28:31;;;;;;;76.90;30.13;;;1.80;99.90;;;;;;5063286;28;20059;-75
2022/01/11 06:30:57;;;;;;;81.60;29.95;;;1.90;99.90;;;;;;5060733;28;20047;-75
2022/01/11 06:33:23;;;;;;;81.90;31.85;;;1.90;99.90;;;;;;5055556;28;20029;-75
2022/01/11 06:35:50;;;;;;;71.28;30.80;;;1.90;99.90;;;;;;5055788;28;20029;-75
2022/01/11 06:38:16;;;;;;;80.68;33.17;;;1.90;99.90;;;;;;5054209;28;20017;-75
2022/01/11 06:40:42;;;;;;;73.95;31.00;;;2.00;99.90;;;;;;5055629;28;20033;-75
2022/01/11 06:43:08;;;;;;;82.13;32.13;;;2.00;99.90;;;;;;5055582;28;20059;-75
2022/01/11 06:45:35;;;;;;;69.97;29.30;;;2.00;99.90;;;;;;5055870;28;20092;-75
2022/01/11 06:48:02;;;;;;;76.82;30.92;;;1.90;99.90;;;;;;5054658;28;20013;-75
2022/01/11 06:50:28;;;;;;;75.03;30.75;;;2.00;99.90;;;;;;5055672;28;20470;-75
2022/01/11 06:52:54;;;;;;;75.85;30.40;;;2.00;99.90;;;;;;5055207;28;20029;-75
2022/01/11 06:55:20;;;;;;;82.57;31.30;;;2.00;99.90;;;;;;5055487;28;20064;-75
2022/01/11 06:57:48;;;;;;;70.35;28.23;;;2.00;99.90;;;;;;5054205;28;20036;-75
2022/01/11 07:00:15;;;;;;;77.05;31.75;;;2.10;99.90;;;;;;5055406;28;20024;-75
2022/01/11 07:02:41;;;;;;;68.13;28.33;;;2.10;99.90;;;;;;5055499;28;20359;-75
2022/01/11 07:05:07;;;;;;;71.70;31.92;;;2.10;99.90;;;;;;5055278;28;20044;-75
2022/01/11 07:07:33;;;;;;;70.88;28.70;;;2.10;99.90;;;;;;5054817;28;20551;-75
2022/01/11 07:09:59;;;;;;;74.97;29.27;;;2.10;99.90;;;;;;5055419;28;20055;-75
2022/01/11 07:12:26;;;;;;;61.92;26.92;;;2.00;99.90;;;;;;5054821;28;20076;-77
2022/01/11 07:14:52;;;;;;;70.05;29.90;;;2.00;99.90;;;;;;5053736;28;20443;-75
2022/01/11 07:17:19;;;;;;;73.78;30.58;;;2.10;99.90;;;;;;5055361;28;20107;-76
2022/01/11 07:19:45;;;;;;;71.40;30.50;;;2.00;99.90;;;;;;5054848;28;20101;-76
2022/01/11 07:22:11;;;;;;;69.43;31.52;;;2.00;99.90;;;;;;5054783;28;20056;-75
2022/01/11 07:24:36;;;;;;;72.78;31.15;;;2.00;99.90;;;;;;5052891;28;20017;-76
2022/01/11 07:27:02;;;;;;;70.18;32.22;;;2.10;99.90;;;;;;5053010;28;20017;-76
2022/01/11 07:29:31;;;;;;;68.20;29.20;;;2.10;99.90;;;;;;5035186;28;20017;-75
2022/01/11 07:31:56;;;;;;;70.93;27.70;;;1.90;99.90;;;;;;5035088;28;20013;-76
2022/01/11 07:34:24;;;;;;;72.00;29.05;;;2.00;99.90;;;;;;5034775;28;20390;-76
2022/01/11 07:36:50;;;;;;;66.80;27.80;;;2.00;99.90;;;;;;5034687;28;20029;-76
2022/01/11 07:39:16;;;;;;;72.95;27.80;;;2.00;99.90;;;;;;5064650;28;20032;-76
2022/01/11 07:41:42;;;;;;;69.82;28.67;;;2.00;99.90;;;;;;5074663;28;20052;-76
2022/01/11 07:44:09;;;;;;;66.10;28.10;;;2.00;99.90;;;;;;5074704;28;20036;-76
2022/01/11 07:46:36;;;;;;;68.90;28.92;;;2.00;99.90;;;;;;5063726;28;20102;-76
2022/01/11 07:49:02;;;;;;;74.80;28.77;;;2.00;99.90;;;;;;5053051;28;20072;-76
2022/01/11 07:51:29;;;;;;;67.35;29.27;;;1.90;99.90;;;;;;5052754;28;20044;-76
2022/01/11 07:53:55;;;;;;;76.20;30.40;;;2.00;99.90;;;;;;5053395;28;20029;-76
2022/01/11 07:56:21;;;;;;;76.50;29.15;;;2.10;99.90;;;;;;5052695;28;20033;-76
2022/01/11 07:58:48;;;;;;;64.85;28.90;;;2.20;99.90;;;;;;5054405;28;20422;-76
2022/01/11 08:01:17;;;;;;;62.38;27.30;;;2.10;99.90;;;;;;5053781;28;20026;-76
2022/01/11 08:03:43;;;;;;;72.15;28.83;;;2.00;99.90;;;;;;5053953;28;20025;-76
2022/01/11 08:06:09;;;;;;;67.10;28.63;;;1.90;99.90;;;;;;5053995;28;20124;-75
2022/01/11 08:08:35;;;;;;;71.10;28.70;;;1.90;99.90;;;;;;5053998;28;20048;-76
2022/01/11 08:11:02;;;;;;;63.45;28.10;;;1.80;99.90;;;;;;5053900;28;20027;-76
2022/01/11 08:13:29;;;;;;;68.35;28.60;;;1.90;99.90;;;;;;5053974;28;20024;-76
2022/01/11 08:15:55;;;;;;;70.75;30.85;;;1.90;99.90;;;;;;5048961;28;20036;-76
2022/01/11 08:18:21;;;;;;;71.65;31.83;;;2.00;99.90;;;;;;5048941;28;20021;-76
2022/01/11 08:20:49;;;;;;;63.03;28.13;;;2.00;99.90;;;;;;5054815;28;20059;-76
2022/01/11 08:23:15;;;;;;;66.82;30.92;;;2.00;99.90;;;;;;5033626;28;20026;-76
2022/01/11 08:25:42;;;;;;;74.38;29.38;;;1.90;99.90;;;;;;5034144;28;20026;-76
2022/01/11 08:28:09;;;;;;;63.38;27.10;;;1.90;99.90;;;;;;5049137;28;20378;-76
2022/01/11 08:30:41;;;;;;;66.18;27.75;;;1.80;99.90;;;;;;5033718;28;20421;-75
2022/01/11 08:33:09;;;;;;;64.90;26.07;;;1.70;99.90;;;;;;5033417;28;20029;-76
2022/01/11 08:35:36;;;;;;;60.25;26.50;;;1.70;99.90;;;;;;5033451;28;20260;-75
2022/01/11 08:38:02;;;;;;;62.92;26.75;;;1.70;99.90;;;;;;5040333;28;20601;-76
2022/01/11 08:40:28;;;;;;;65.28;26.88;;;1.70;99.90;;;;;;5049210;28;20027;-75
2022/01/11 08:42:54;;;;;;;60.28;26.10;;;1.80;99.90;;;;;;5053124;28;20096;-75
2022/01/11 08:45:20;;;;;;;53.70;25.10;;;1.80;99.90;;;;;;5052440;28;20473;-75
2022/01/11 08:47:46;;;;;;;54.22;26.15;;;1.70;99.90;;;;;;5051797;28;20024;-75
2022/01/11 08:50:13;;;;;;;57.42;25.77;;;1.80;99.90;;;;;;5052190;28;20023;-75
2022/01/11 08:52:41;;;;;;;57.25;26.15;;;1.80;99.90;;;;;;5051758;28;20009;-76
2022/01/11 08:55:11;;;;;;;61.97;26.08;;;1.90;99.90;;;;;;5039253;28;20087;-75
2022/01/11 08:57:37;;;;;;;57.65;27.60;;;2.00;99.90;;;;;;5043987;28;20055;-75
2022/01/11 09:00:13;;;;;;;62.60;26.90;;;2.10;99.90;;;;;;5053072;28;20651;-75
2022/01/11 09:02:40;;;;;;;64.28;27.95;;;2.10;99.90;;;;;;5062739;28;20122;-75
2022/01/11 09:05:06;;;;;;;65.78;28.05;;;2.10;99.90;;;;;;5046510;28;20521;-75
2022/01/11 09:07:32;;;;;;;66.90;30.17;;;2.20;99.90;;;;;;5039220;28;20064;-76
2022/01/11 09:09:58;;;;;;;61.72;28.85;;;2.30;99.90;;;;;;5052698;28;20469;-75
2022/01/11 09:12:23;;;;;;;58.72;25.90;;;2.40;99.90;;;;;;5040955;28;20025;-75
2022/01/11 09:14:50;;;;;;;65.88;27.10;;;2.30;99.90;;;;;;5044403;28;20032;-75
2022/01/11 09:17:17;;;;;;;62.22;28.05;;;2.30;99.90;;;;;;5052852;28;20029;-76
2022/01/11 09:19:44;;;;;;;57.33;27.55;;;2.20;99.90;;;;;;5055643;28;20034;-76
2022/01/11 09:22:11;;;;;;;60.10;27.08;;;2.30;99.90;;;;;;5052337;28;20032;-76
2022/01/11 09:24:37;;;;;;;55.65;25.55;;;2.40;99.90;;;;;;5051562;28;20029;-76
2022/01/11 09:27:04;;;;;;;49.72;25.33;;;2.40;99.90;;;;;;5043670;28;20474;-75
2022/01/11 09:29:36;;;;;;;50.67;24.42;;;2.50;99.90;;;;;;5033320;28;20021;-75
2022/01/11 09:32:04;;;;;;;50.22;24.00;;;2.60;99.90;;;;;;5048378;28;20366;-76
2022/01/11 09:34:30;;;;;;;50.85;24.52;;;2.50;99.90;;;;;;5050644;28;20445;-76
2022/01/11 09:36:56;;;;;;;51.58;23.50;;;2.60;99.90;;;;;;5052141;28;20061;-75
2022/01/11 09:39:23;;;;;;;54.00;25.60;;;2.50;99.90;;;;;;5051864;28;20056;-75
2022/01/11 09:41:50;;;;;;;50.47;23.58;;;2.60;99.90;;;;;;5045244;28;20026;-75
2022/01/11 09:44:18;;;;;;;46.13;23.83;;;2.60;99.90;;;;;;5034257;28;20477;-75
2022/01/11 09:46:43;;;;;;;46.95;23.98;;;2.70;99.90;;;;;;5039343;28;20024;-75
2022/01/11 09:49:10;;;;;;;50.63;24.85;;;2.70;99.90;;;;;;5041599;28;20017;-75
2022/01/11 09:51:36;;;;;;;51.75;25.52;;;2.80;99.90;;;;;;5052358;28;20021;-74
2022/01/11 09:54:04;;;;;;;49.95;25.52;;;3.00;99.90;;;;;;5038361;28;20040;-74
2022/01/11 09:56:30;;;;;;;51.78;25.40;;;3.10;99.90;;;;;;5040845;28;20030;-74
2022/01/11 09:58:56;;;;;;;53.08;25.63;;;3.10;99.90;;;;;;5044595;28;20078;-74
2022/01/11 10:01:21;;;;;;;54.28;27.55;;;3.00;99.90;;;;;;5044422;28;20060;-75
2022/01/11 10:04:16;;;;;;;59.28;26.45;;;3.10;99.90;;;;;;5050741;28;20477;-75
2022/01/11 10:06:42;;;;;;;52.20;25.67;;;3.20;99.90;;;;;;5053745;28;20509;-75
2022/01/11 10:09:18;;;;;;;58.95;28.00;;;3.20;99.90;;;;;;5057908;28;20481;-74
2022/01/11 10:11:56;;;;;;;55.70;27.85;;;3.20;99.90;;;;;;5072297;28;20377;-75
2022/01/11 10:14:35;;;;;;;52.10;25.05;;;3.20;99.90;;;;;;5076242;28;20074;-75
2022/01/11 10:17:18;;;;;;;49.88;25.92;;;3.30;99.90;;;;;;5075928;28;20032;-75
2022/01/11 10:20:00;;;;;;;51.35;24.33;;;3.30;99.90;;;;;;5073148;28;20116;-75
2022/01/11 10:22:30;;;;;;;50.75;24.80;;;3.40;99.90;;;;;;5066572;28;20029;-77
2022/01/11 10:24:59;;;;;;;49.80;23.27;;;3.70;99.90;;;;;;5069190;28;20025;-75
2022/01/11 10:27:34;;;;;;;48.45;22.50;;;3.60;99.90;;;;;;5056020;28;20067;-75
2022/01/11 10:30:05;;;;;;;40.75;20.23;;;3.70;99.90;;;;;;5056204;28;20025;-76
2022/01/11 10:32:36;;;;;;;43.40;21.52;;;3.80;99.90;;;;;;5055755;28;20021;-76
2022/01/11 10:35:05;;;;;;;48.15;22.55;;;3.90;99.90;;;;;;5055965;28;20469;-76
2022/01/11 10:37:44;;;;;;;45.30;21.33;;;4.00;99.90;;;;;;5055306;28;20033;-76
2022/01/11 10:40:11;;;;;;;40.00;20.38;;;4.10;99.90;;;;;;5054622;28;20056;-76
2022/01/11 10:42:46;;;;;;;40.47;21.25;;;4.30;99.90;;;;;;5055928;28;20083;-77
2022/01/11 10:45:35;;;;;;;40.80;20.80;;;4.40;99.90;;;;;;5055247;28;20020;-77
2022/01/11 10:48:06;;;;;;;43.75;20.73;;;4.50;99.90;;;;;;5054579;28;20453;-77
2022/01/11 10:50:43;;;;;;;38.17;18.10;;;4.60;99.90;;;;;;5055915;28;20021;-76
2022/01/11 10:53:23;;;;;;;40.47;20.63;;;4.70;99.90;;;;;;5038434;28;20474;-77
2022/01/11 10:55:58;;;;;;;37.85;18.52;;;4.70;99.90;;;;;;5034550;28;20108;-77
2022/01/11 10:58:33;;;;;;;33.30;17.58;;;4.80;99.90;;;;;;5035735;28;20030;-77
2022/01/11 11:01:00;;;;;;;31.90;16.05;;;4.80;99.90;;;;;;5035871;28;20021;-77
2022/01/11 11:03:31;;;;;;;30.58;15.80;;;4.90;99.90;;;;;;5035594;28;20037;-77
2022/01/11 11:06:07;;;;;;;30.05;15.93;;;4.90;99.90;;;;;;5035707;28;20512;-77
2022/01/11 11:08:41;;;;;;;28.77;13.90;;;5.00;99.90;;;;;;5035531;28;20053;-77
2022/01/11 11:11:24;;;;;;;37.20;18.98;;;5.00;99.90;;;;;;5035372;28;20025;-76
2022/01/11 11:13:51;;;;;;;31.52;17.92;;;5.00;99.90;;;;;;5034875;28;20022;-76
2022/01/11 11:16:25;;;;;;;39.08;16.88;;;5.00;99.90;;;;;;5035403;28;20025;-77
2022/01/11 11:18:57;;;;;;;27.27;13.77;;;5.10;99.90;;;;;;5035552;28;20049;-77
2022/01/11 11:21:37;;;;;;;31.92;16.70;;;5.10;99.90;;;;;;5050541;28;20068;-77
2022/01/11 11:24:13;;;;;;;33.78;16.42;;;5.20;99.90;;;;;;5050317;28;20466;-77
2022/01/11 11:26:49;;;;;;;32.38;16.67;;;5.30;99.90;;;;;;5050732;28;20022;-77
2022/01/11 11:29:17;;;;;;;30.67;15.85;;;5.20;99.90;;;;;;5044786;28;20024;-79
2022/01/11 11:31:43;;;;;;;31.63;15.93;;;5.20;99.90;;;;;;5055500;28;20021;-78
2022/01/11 11:34:10;;;;;;;33.28;14.75;;;5.30;99.90;;;;;;5054907;28;20032;-78
2022/01/11 11:36:38;;;;;;;29.67;14.90;;;5.40;99.90;;;;;;5053736;28;20040;-78
2022/01/11 11:39:11;;;;;;;33.40;16.98;;;5.40;99.90;;;;;;5053508;28;20389;-78
2022/01/11 11:41:43;;;;;;;28.60;14.93;;;5.40;99.90;;;;;;5054821;28;20100;-78
2022/01/11 11:44:17;;;;;;;33.33;16.30;;;5.50;99.90;;;;;;5054420;28;20024;-78
2022/01/11 11:46:55;;;;;;;24.52;14.73;;;5.60;99.90;;;;;;5055023;28;20028;-78
2022/01/11 11:49:51;;;;;;;29.73;15.05;;;5.70;99.90;;;;;;5054705;28;20033;-77
2022/01/11 11:52:21;;;;;;;25.42;14.20;;;5.70;99.90;;;;;;5054522;28;20020;-78
2022/01/11 11:54:53;;;;;;;26.25;13.80;;;5.80;99.90;;;;;;5053406;28;20032;-78
2022/01/11 11:57:20;;;;;;;29.80;14.25;;;5.70;99.90;;;;;;5053212;28;20029;-78
2022/01/11 12:00:03;;;;;;;28.42;14.02;;;5.70;99.90;;;;;;5054613;28;20028;-78
2022/01/11 12:02:38;;;;;;;32.53;14.68;;;5.70;99.90;;;;;;5040164;28;20072;-78
2022/01/11 12:05:10;;;;;;;31.17;16.88;;;5.70;99.90;;;;;;5036064;28;20045;-78
2022/01/11 12:07:41;;;;;;;27.90;14.48;;;5.70;99.90;;;;;;5044668;28;20026;-78
2022/01/11 12:10:14;;;;;;;28.27;13.85;;;5.80;99.90;;;;;;5034014;28;20018;-78
2022/01/11 12:12:50;;;;;;;28.27;15.27;;;5.80;99.90;;;;;;5033740;28;20021;-78
2022/01/11 12:15:21;;;;;;;27.88;14.10;;;5.80;99.90;;;;;;5042441;28;20045;-78
2022/01/11 12:17:56;;;;;;;34.90;15.25;;;5.90;99.90;;;;;;5053594;28;20040;-78
2022/01/11 12:20:52;;;;;;;22.77;12.63;;;5.90;99.90;;;;;;5052317;28;20029;-78
2022/01/11 12:23:39;;;;;;;25.48;12.98;;;5.90;99.90;;;;;;5029459;28;20059;-78
2022/01/11 12:26:19;;;;;;;20.27;12.00;;;6.00;99.90;;;;;;5076053;28;20068;-78
2022/01/11 12:29:00;;;;;;;27.42;12.15;;;6.00;99.90;;;;;;5072754;28;20024;-77
2022/01/11 12:31:31;;;;;;;19.10;11.40;;;6.10;99.90;;;;;;5055006;28;20104;-77
2022/01/11 12:33:57;;;;;;;22.73;12.02;;;6.10;99.90;;;;;;5053059;28;20043;-78
2022/01/11 12:36:58;;;;;;;30.60;14.95;;;6.20;99.90;;;;;;5051848;28;20493;-78
2022/01/11 12:39:29;;;;;;;32.65;15.25;;;6.10;99.90;;;;;;5050003;28;20109;-78
2022/01/11 12:41:57;;;;;;;31.13;14.68;;;6.20;99.90;;;;;;5069759;28;20021;-78
2022/01/11 12:47:25;;;;;;;26.65;14.70;;;6.20;99.90;;;;;;5042241;28;20036;-78
2022/01/11 12:50:12;;;;;;;21.75;10.90;;;6.20;99.90;;;;;;5053540;28;20024;-78